Iberica Hav — C6YI3 — position and weather

sailwx.info

Track history (hours):
 
Tides and Currents Weather Stations Pressure Air Temp Water Temp Dewpoint Dewpoint Depression Visibility Wind Speed Wind Dir Waves Ship Positions

Iberica Hav

Last reported at 2017-Mar-23 17:32 UTC. Time now 2017-Mar-23 18:27 UTC.
Position N 51°57' E 004°09'.

Length 88 m; draft 2.5 m.

Type: Cargo ship. MMSI: 311034400.

Date/timePositionNaut miles runAvg speedWind from/ knotsBaromVisibWave heightAir tempDewpointWater temp
2017-Mar-23 17:32N 51°57' E 004°09'0 0.0
2017-Mar-23 16:32N 51°57' E 004°09'0 0.0
2017-Mar-23 15:32N 51°57' E 004°09'0 0.0
2017-Mar-23 14:32N 51°57' E 004°09'0 0.0
2017-Mar-23 13:32N 51°57' E 004°09'0 0.0
2017-Mar-23 12:32N 51°57' E 004°09'0 0.0
2017-Mar-23 11:31N 51°57' E 004°09'0 0.0
2017-Mar-23 10:33N 51°57' E 004°09'7 7.3
2017-Mar-23 09:33N 51°60' E 003°58'11 9.0
2017-Mar-23 08:19N 52°03' E 003°41'17 9.5
2017-Mar-23 06:33N 52°12' E 003°17'65 9.3
2017-Mar-22 23:33N 52°47' E 001°47'8 8.4
2017-Mar-22 22:33N 52°51' E 001°35'8 8.0
2017-Mar-22 21:33N 52°56' E 001°24'8 8.1
2017-Mar-22 20:32N 53°00' E 001°12'56 8.1
2017-Mar-22 13:33N 53°35' W 000°02'6 6.3
2017-Mar-22 12:33N 53°38' W 000°11'0 0.4
2017-Mar-22 11:33N 53°38' W 000°12'0 0.0
2017-Mar-22 10:33N 53°38' W 000°12'0 0.0
2017-Mar-22 09:33N 53°38' W 000°12'0 0.0
2017-Mar-22 08:33N 53°38' W 000°12'0 0.0
2017-Mar-22 07:33N 53°38' W 000°12'0 0.0
2017-Mar-22 06:33N 53°38' W 000°12'0 0.0
2017-Mar-22 05:33N 53°38' W 000°12'0 0.0
2017-Mar-22 04:33N 53°38' W 000°12'0 0.3
2017-Mar-22 03:33N 53°38' W 000°11'3 2.6
2017-Mar-22 02:33N 53°37' W 000°07'181 6.6
2017-Mar-20 23:10N 53°50' E 004°59'5 7.1
2017-Mar-20 22:31N 53°50' E 005°06'7 7.0
2017-Mar-20 21:33N 53°51' E 005°18'100 7.7
2017-Mar-20 08:33N 53°49' E 008°07'1212.0
2017-Mar-20 07:33N 53°41' E 008°21'1211.8
2017-Mar-20 06:33N 53°32' E 008°34'10 9.8
2017-Mar-20 05:33N 53°22' E 008°30'8 8.4
2017-Mar-20 04:33N 53°14' E 008°29'7 7.2
2017-Mar-20 03:33N 53°09' E 008°38'4 3.6
2017-Mar-20 02:34N 53°07' E 008°43'0 0.2
2017-Mar-20 01:33N 53°07' E 008°43'0 0.0
2017-Mar-20 00:33N 53°07' E 008°43'0 0.0
2017-Mar-19 23:32N 53°07' E 008°43'0 0.0
2017-Mar-19 22:32N 53°07' E 008°43'0 0.0
2017-Mar-19 21:32N 53°07' E 008°43'0 0.0
2017-Mar-19 20:33N 53°07' E 008°43'0 0.0
2017-Mar-19 19:33N 53°07' E 008°43'0 0.0
2017-Mar-19 18:33N 53°07' E 008°43'0 0.0
2017-Mar-19 17:33N 53°07' E 008°43'0 0.0
2017-Mar-19 16:32N 53°07' E 008°43'0 0.0
2017-Mar-19 15:33N 53°07' E 008°43'0 0.0
2017-Mar-19 14:32N 53°07' E 008°43'0 0.0
2017-Mar-19 13:32N 53°07' E 008°43'0 0.0
2017-Mar-19 12:32N 53°07' E 008°43'0 0.0
2017-Mar-19 11:32N 53°07' E 008°43'0 0.0
2017-Mar-19 10:32N 53°07' E 008°43'0 0.0
2017-Mar-19 09:32N 53°07' E 008°43'0 0.0
2017-Mar-19 08:32N 53°07' E 008°43'0 0.0
2017-Mar-19 07:32N 53°07' E 008°43'0 0.0
2017-Mar-19 06:32N 53°07' E 008°43'0 0.0
2017-Mar-19 05:32N 53°07' E 008°43'0 0.0
2017-Mar-19 04:32N 53°07' E 008°43'0 0.0
2017-Mar-19 03:32N 53°07' E 008°43'0 0.0
2017-Mar-19 02:32N 53°07' E 008°43'0 0.0
2017-Mar-19 01:32N 53°07' E 008°43'0 0.0
2017-Mar-19 00:32N 53°07' E 008°43'0 0.0
2017-Mar-18 23:32N 53°07' E 008°43'0 0.0
2017-Mar-18 22:32N 53°07' E 008°43'0 0.0
2017-Mar-18 21:32N 53°07' E 008°43'0 0.0
2017-Mar-18 20:32N 53°07' E 008°43'0 0.0
2017-Mar-18 19:32N 53°07' E 008°43'0 0.0
2017-Mar-18 18:32N 53°07' E 008°43'0 0.0
2017-Mar-18 17:32N 53°07' E 008°43'0 0.0
2017-Mar-18 16:32N 53°07' E 008°43'0 0.0
2017-Mar-18 15:32N 53°07' E 008°43'0 0.0
2017-Mar-18 14:32N 53°07' E 008°43'0 0.0
2017-Mar-18 13:32N 53°07' E 008°43'0 0.0
2017-Mar-18 12:32N 53°07' E 008°43'0 0.0
2017-Mar-18 11:32N 53°07' E 008°43'0 0.0
2017-Mar-18 10:32N 53°07' E 008°43'0 0.0
2017-Mar-18 09:32N 53°07' E 008°43'0 0.0
2017-Mar-18 08:32N 53°07' E 008°43'0 0.0
2017-Mar-18 07:32N 53°07' E 008°43'0 0.0
2017-Mar-18 06:32N 53°07' E 008°43'0 0.0
2017-Mar-18 05:32N 53°07' E 008°43'0 0.0
2017-Mar-18 04:32N 53°07' E 008°43'0 0.0
2017-Mar-18 03:32N 53°07' E 008°43'0 0.0
2017-Mar-18 02:32N 53°07' E 008°43'0 0.0
2017-Mar-18 01:32N 53°07' E 008°43'0 0.0
2017-Mar-18 00:32N 53°07' E 008°43'0 0.0
2017-Mar-17 23:32N 53°07' E 008°43'0 0.0
2017-Mar-17 22:32N 53°07' E 008°43'0 0.0
2017-Mar-17 21:32N 53°07' E 008°43'0 0.0
2017-Mar-17 20:32N 53°07' E 008°43'0 0.0
2017-Mar-17 19:32N 53°07' E 008°43'0 0.0
2017-Mar-17 18:32N 53°07' E 008°43'0 0.0
2017-Mar-17 17:32N 53°07' E 008°43'0 0.0
2017-Mar-17 16:32N 53°07' E 008°43'0 0.0
2017-Mar-17 15:32N 53°07' E 008°43'0 0.0
2017-Mar-17 14:32N 53°07' E 008°43'0 0.0
2017-Mar-17 13:32N 53°07' E 008°43'0 0.0
2017-Mar-17 12:32N 53°07' E 008°43'0 0.0
2017-Mar-17 11:32N 53°07' E 008°43'0 0.1
2017-Mar-17 10:32N 53°07' E 008°43'0 0.0
2017-Mar-17 09:32N 53°07' E 008°43'0 0.0
2017-Mar-17 08:32N 53°07' E 008°43'0 0.0
2017-Mar-17 07:32N 53°07' E 008°43'0 0.0
2017-Mar-17 06:32N 53°07' E 008°43'0 0.0
2017-Mar-17 05:32N 53°07' E 008°43'0 0.0
2017-Mar-17 04:32N 53°07' E 008°43'0 0.0
2017-Mar-17 03:32N 53°07' E 008°43'0 0.4
2017-Mar-17 02:34N 53°07' E 008°43'7 7.0
2017-Mar-17 01:33N 53°11' E 008°33'9 9.2
2017-Mar-17 00:33N 53°20' E 008°30'1111.1
2017-Mar-16 23:34N 53°31' E 008°33'3 2.5
2017-Mar-16 22:33N 53°34' E 008°33'1010.4
2017-Mar-16 21:33N 53°41' E 008°21'10 9.7
2017-Mar-16 20:33N 53°47' E 008°08'163 9.9
2017-Mar-16 04:07N 52°39' E 004°03'711.4
2017-Mar-16 03:30N 52°33' E 003°57'3110.1
2017-Mar-16 00:27N 52°07' E 003°28'8 9.1
2017-Mar-15 23:32N 51°59' E 003°24'9 8.7
2017-Mar-15 22:33N 51°51' E 003°20'9 8.5
2017-Mar-15 21:33N 51°43' E 003°17'1010.0
2017-Mar-15 20:32N 51°34' E 003°25'1010.5
2017-Mar-15 19:33N 51°26' E 003°35'27 6.7
2017-Mar-15 15:33N 51°21' E 004°18'5 5.0
2017-Mar-15 14:34N 51°17' E 004°23'0 0.0
2017-Mar-15 13:32N 51°17' E 004°23'0 0.0
2017-Mar-15 12:25N 51°17' E 004°23'0 0.0
2017-Mar-15 11:31N 51°17' E 004°23'0 0.0
2017-Mar-15 10:31N 51°17' E 004°23'0 0.0
2017-Mar-15 09:31N 51°17' E 004°23'0 0.0
2017-Mar-15 08:31N 51°17' E 004°23'0 0.0
2017-Mar-15 07:31N 51°17' E 004°23'0 0.0
2017-Mar-15 06:31N 51°17' E 004°23'0 0.0
2017-Mar-15 05:31N 51°17' E 004°23'0 0.0
2017-Mar-15 04:31N 51°17' E 004°23'0 0.0
2017-Mar-15 03:25N 51°17' E 004°23'0 0.0
2017-Mar-15 02:31N 51°17' E 004°23'0 0.0
2017-Mar-15 01:31N 51°17' E 004°23'0 0.0
2017-Mar-15 00:31N 51°17' E 004°23'0 0.0
2017-Mar-14 23:31N 51°17' E 004°23'5 5.4
2017-Mar-14 22:33N 51°21' E 004°17'2 2.4
2017-Mar-14 21:34N 51°22' E 004°14'6 5.7
2017-Mar-14 20:33N 51°22' E 004°04'5 4.8
2017-Mar-14 19:33N 51°25' E 003°58'6 6.1
2017-Mar-14 18:33N 51°21' E 003°50'7 6.7
2017-Mar-14 17:34N 51°24' E 003°41'7 7.4
2017-Mar-14 16:33N 51°28' E 003°31'8 8.2
2017-Mar-14 15:33N 51°35' E 003°24'9 9.2
2017-Mar-14 14:34N 51°42' E 003°16'16910.0
2017-Mar-13 21:34N 53°38' W 000°08'1111.2
2017-Mar-13 20:33N 53°42' W 000°26'  
Track history (hours):
 
Tides and Currents Weather Stations Pressure Air Temp Water Temp Dewpoint Dewpoint Depression Visibility Wind Speed Wind Dir Waves Ship Positions

Iberica Hav

Last reported at 2017-Mar-23 17:32 UTC. Time now 2017-Mar-23 18:27 UTC.
Position N 51°57' E 004°09'.

Length 88 m; draft 2.5 m.

Type: Cargo ship. MMSI: 311034400.

Date/timePositionNaut miles runAvg speedWind from/ knotsBaromVisibWave heightAir tempDewpointWater temp
2017-Mar-23 17:32N 51°57' E 004°09'0 0.0
2017-Mar-23 16:32N 51°57' E 004°09'0 0.0
2017-Mar-23 15:32N 51°57' E 004°09'0 0.0
2017-Mar-23 14:32N 51°57' E 004°09'0 0.0
2017-Mar-23 13:32N 51°57' E 004°09'0 0.0
2017-Mar-23 12:32N 51°57' E 004°09'0 0.0
2017-Mar-23 11:31N 51°57' E 004°09'0 0.0
2017-Mar-23 10:33N 51°57' E 004°09'7 7.3
2017-Mar-23 09:33N 51°60' E 003°58'11 9.0
2017-Mar-23 08:19N 52°03' E 003°41'17 9.5
2017-Mar-23 06:33N 52°12' E 003°17'65 9.3
2017-Mar-22 23:33N 52°47' E 001°47'8 8.4
2017-Mar-22 22:33N 52°51' E 001°35'8 8.0
2017-Mar-22 21:33N 52°56' E 001°24'8 8.1
2017-Mar-22 20:32N 53°00' E 001°12'56 8.1
2017-Mar-22 13:33N 53°35' W 000°02'6 6.3
2017-Mar-22 12:33N 53°38' W 000°11'0 0.4
2017-Mar-22 11:33N 53°38' W 000°12'0 0.0
2017-Mar-22 10:33N 53°38' W 000°12'0 0.0
2017-Mar-22 09:33N 53°38' W 000°12'0 0.0
2017-Mar-22 08:33N 53°38' W 000°12'0 0.0
2017-Mar-22 07:33N 53°38' W 000°12'0 0.0
2017-Mar-22 06:33N 53°38' W 000°12'0 0.0
2017-Mar-22 05:33N 53°38' W 000°12'0 0.0
2017-Mar-22 04:33N 53°38' W 000°12'0 0.3
2017-Mar-22 03:33N 53°38' W 000°11'3 2.6
2017-Mar-22 02:33N 53°37' W 000°07'181 6.6
2017-Mar-20 23:10N 53°50' E 004°59'5 7.1
2017-Mar-20 22:31N 53°50' E 005°06'7 7.0
2017-Mar-20 21:33N 53°51' E 005°18'100 7.7
2017-Mar-20 08:33N 53°49' E 008°07'1212.0
2017-Mar-20 07:33N 53°41' E 008°21'1211.8
2017-Mar-20 06:33N 53°32' E 008°34'10 9.8
2017-Mar-20 05:33N 53°22' E 008°30'8 8.4
2017-Mar-20 04:33N 53°14' E 008°29'7 7.2
2017-Mar-20 03:33N 53°09' E 008°38'4 3.6
2017-Mar-20 02:34N 53°07' E 008°43'0 0.2
2017-Mar-20 01:33N 53°07' E 008°43'0 0.0
2017-Mar-20 00:33N 53°07' E 008°43'0 0.0
2017-Mar-19 23:32N 53°07' E 008°43'0 0.0
2017-Mar-19 22:32N 53°07' E 008°43'0 0.0
2017-Mar-19 21:32N 53°07' E 008°43'0 0.0
2017-Mar-19 20:33N 53°07' E 008°43'0 0.0
2017-Mar-19 19:33N 53°07' E 008°43'0 0.0
2017-Mar-19 18:33N 53°07' E 008°43'0 0.0
2017-Mar-19 17:33N 53°07' E 008°43'0 0.0
2017-Mar-19 16:32N 53°07' E 008°43'0 0.0
2017-Mar-19 15:33N 53°07' E 008°43'0 0.0
2017-Mar-19 14:32N 53°07' E 008°43'0 0.0
2017-Mar-19 13:32N 53°07' E 008°43'0 0.0
2017-Mar-19 12:32N 53°07' E 008°43'0 0.0
2017-Mar-19 11:32N 53°07' E 008°43'0 0.0
2017-Mar-19 10:32N 53°07' E 008°43'0 0.0
2017-Mar-19 09:32N 53°07' E 008°43'0 0.0
2017-Mar-19 08:32N 53°07' E 008°43'0 0.0
2017-Mar-19 07:32N 53°07' E 008°43'0 0.0
2017-Mar-19 06:32N 53°07' E 008°43'0 0.0
2017-Mar-19 05:32N 53°07' E 008°43'0 0.0
2017-Mar-19 04:32N 53°07' E 008°43'0 0.0
2017-Mar-19 03:32N 53°07' E 008°43'0 0.0
2017-Mar-19 02:32N 53°07' E 008°43'0 0.0
2017-Mar-19 01:32N 53°07' E 008°43'0 0.0
2017-Mar-19 00:32N 53°07' E 008°43'0 0.0
2017-Mar-18 23:32N 53°07' E 008°43'0 0.0
2017-Mar-18 22:32N 53°07' E 008°43'0 0.0
2017-Mar-18 21:32N 53°07' E 008°43'0 0.0
2017-Mar-18 20:32N 53°07' E 008°43'0 0.0
2017-Mar-18 19:32N 53°07' E 008°43'0 0.0
2017-Mar-18 18:32N 53°07' E 008°43'0 0.0
2017-Mar-18 17:32N 53°07' E 008°43'0 0.0
2017-Mar-18 16:32N 53°07' E 008°43'0 0.0
2017-Mar-18 15:32N 53°07' E 008°43'0 0.0
2017-Mar-18 14:32N 53°07' E 008°43'0 0.0
2017-Mar-18 13:32N 53°07' E 008°43'0 0.0
2017-Mar-18 12:32N 53°07' E 008°43'0 0.0
2017-Mar-18 11:32N 53°07' E 008°43'0 0.0
2017-Mar-18 10:32N 53°07' E 008°43'0 0.0
2017-Mar-18 09:32N 53°07' E 008°43'0 0.0
2017-Mar-18 08:32N 53°07' E 008°43'0 0.0
2017-Mar-18 07:32N 53°07' E 008°43'0 0.0
2017-Mar-18 06:32N 53°07' E 008°43'0 0.0
2017-Mar-18 05:32N 53°07' E 008°43'0 0.0
2017-Mar-18 04:32N 53°07' E 008°43'0 0.0
2017-Mar-18 03:32N 53°07' E 008°43'0 0.0
2017-Mar-18 02:32N 53°07' E 008°43'0 0.0
2017-Mar-18 01:32N 53°07' E 008°43'0 0.0
2017-Mar-18 00:32N 53°07' E 008°43'0 0.0
2017-Mar-17 23:32N 53°07' E 008°43'0 0.0
2017-Mar-17 22:32N 53°07' E 008°43'0 0.0
2017-Mar-17 21:32N 53°07' E 008°43'0 0.0
2017-Mar-17 20:32N 53°07' E 008°43'0 0.0
2017-Mar-17 19:32N 53°07' E 008°43'0 0.0
2017-Mar-17 18:32N 53°07' E 008°43'0 0.0
2017-Mar-17 17:32N 53°07' E 008°43'0 0.0
2017-Mar-17 16:32N 53°07' E 008°43'0 0.0
2017-Mar-17 15:32N 53°07' E 008°43'0 0.0
2017-Mar-17 14:32N 53°07' E 008°43'0 0.0
2017-Mar-17 13:32N 53°07' E 008°43'0 0.0
2017-Mar-17 12:32N 53°07' E 008°43'0 0.0
2017-Mar-17 11:32N 53°07' E 008°43'0 0.1
2017-Mar-17 10:32N 53°07' E 008°43'0 0.0
2017-Mar-17 09:32N 53°07' E 008°43'0 0.0
2017-Mar-17 08:32N 53°07' E 008°43'0 0.0
2017-Mar-17 07:32N 53°07' E 008°43'0 0.0
2017-Mar-17 06:32N 53°07' E 008°43'0 0.0
2017-Mar-17 05:32N 53°07' E 008°43'0 0.0
2017-Mar-17 04:32N 53°07' E 008°43'0 0.0
2017-Mar-17 03:32N 53°07' E 008°43'0 0.4
2017-Mar-17 02:34N 53°07' E 008°43'7 7.0
2017-Mar-17 01:33N 53°11' E 008°33'9 9.2
2017-Mar-17 00:33N 53°20' E 008°30'1111.1
2017-Mar-16 23:34N 53°31' E 008°33'3 2.5
2017-Mar-16 22:33N 53°34' E 008°33'1010.4
2017-Mar-16 21:33N 53°41' E 008°21'10 9.7
2017-Mar-16 20:33N 53°47' E 008°08'163 9.9
2017-Mar-16 04:07N 52°39' E 004°03'711.4
2017-Mar-16 03:30N 52°33' E 003°57'3110.1
2017-Mar-16 00:27N 52°07' E 003°28'8 9.1
2017-Mar-15 23:32N 51°59' E 003°24'9 8.7
2017-Mar-15 22:33N 51°51' E 003°20'9 8.5
2017-Mar-15 21:33N 51°43' E 003°17'1010.0
2017-Mar-15 20:32N 51°34' E 003°25'1010.5
2017-Mar-15 19:33N 51°26' E 003°35'27 6.7
2017-Mar-15 15:33N 51°21' E 004°18'5 5.0
2017-Mar-15 14:34N 51°17' E 004°23'0 0.0
2017-Mar-15 13:32N 51°17' E 004°23'0 0.0
2017-Mar-15 12:25N 51°17' E 004°23'0 0.0
2017-Mar-15 11:31N 51°17' E 004°23'0 0.0
2017-Mar-15 10:31N 51°17' E 004°23'0 0.0
2017-Mar-15 09:31N 51°17' E 004°23'0 0.0
2017-Mar-15 08:31N 51°17' E 004°23'0 0.0
2017-Mar-15 07:31N 51°17' E 004°23'0 0.0
2017-Mar-15 06:31N 51°17' E 004°23'0 0.0
2017-Mar-15 05:31N 51°17' E 004°23'0 0.0
2017-Mar-15 04:31N 51°17' E 004°23'0 0.0
2017-Mar-15 03:25N 51°17' E 004°23'0 0.0
2017-Mar-15 02:31N 51°17' E 004°23'0 0.0
2017-Mar-15 01:31N 51°17' E 004°23'0 0.0
2017-Mar-15 00:31N 51°17' E 004°23'0 0.0
2017-Mar-14 23:31N 51°17' E 004°23'5 5.4
2017-Mar-14 22:33N 51°21' E 004°17'2 2.4
2017-Mar-14 21:34N 51°22' E 004°14'6 5.7
2017-Mar-14 20:33N 51°22' E 004°04'5 4.8
2017-Mar-14 19:33N 51°25' E 003°58'6 6.1
2017-Mar-14 18:33N 51°21' E 003°50'7 6.7
2017-Mar-14 17:34N 51°24' E 003°41'7 7.4
2017-Mar-14 16:33N 51°28' E 003°31'8 8.2
2017-Mar-14 15:33N 51°35' E 003°24'9 9.2
2017-Mar-14 14:34N 51°42' E 003°16'16910.0
2017-Mar-13 21:34N 53°38' W 000°08'1111.2
2017-Mar-13 20:33N 53°42' W 000°26'  

Dump ship's entire track history